Terminal Aerodrome Forecast
Issued by NWS

Home | Current Version | Previous Version | Text Only | Print | Product List | Glossary Off
Versions: 1 2 3 4 5 6 7 8 9 10 11 12 13 14 15 16 17 18 19

212
FTUS43 KBIS 200520
TAFMOT
TAF
KMOT 200520Z 2006/2106 25008KT P6SM VCSH OVC070
     FM201000 25011KT P6SM FEW060 SCT200
     FM201600 22012KT P6SM FEW050 SCT250
     FM210200 18008KT P6SM FEW100 SCT130=

USA.gov is the U.S. government's official web portal to all federal, state and local government web resources and services.